Tubul — A8VP8 — position and weather

sailwx.info

Track history (hours):
 
Tides and Currents Weather Stations Pressure Air Temp Water Temp Dewpoint Dewpoint Depression Visibility Wind Speed Wind Dir Waves Ship Positions

Tubul

Last reported at 2016-Nov-29 16:33 UTC. Time now 2016-Dec-09 03:52 UTC.
Position S 27°31' W 048°16'.
Warning: this ship's position is 9 days out of date.

Length 300 m; draft 10.7 m.

Type: Ship (hazmat cat A). MMSI: 636014647.

Date/timePositionNaut miles runAvg speedWind from/ knotsBaromVisibWave heightAir tempDewpointWater temp
2016-Nov-29 16:33S 27°31' W 048°16'  
2016-Nov-26 02:11S 24°39' W 046°47'1421.8
2016-Nov-26 01:33S 24°29' W 046°37'2121.4
2016-Nov-26 00:33S 24°10' W 046°25'1212.5
2016-Nov-25 23:33S 23°60' W 046°18'2 1.4
2016-Nov-25 22:16S 23°58' W 046°18'0 0.0
2016-Nov-25 21:25S 23°58' W 046°18'0 0.0
2016-Nov-25 20:28S 23°58' W 046°18'0 0.0
2016-Nov-25 19:13S 23°58' W 046°18'0 0.0
2016-Nov-25 17:28S 23°58' W 046°18'0 0.0
2016-Nov-25 16:22S 23°58' W 046°18'0 0.0
2016-Nov-25 15:31S 23°58' W 046°18'0 0.0
2016-Nov-25 14:31S 23°58' W 046°18'0 0.0
2016-Nov-25 13:25S 23°58' W 046°18'0 0.0
2016-Nov-25 11:19S 23°58' W 046°18'0 0.0
2016-Nov-25 10:28S 23°58' W 046°18'0 0.0
2016-Nov-25 09:28S 23°58' W 046°18'0 0.0
2016-Nov-25 08:28S 23°58' W 046°18'0 0.0
2016-Nov-25 07:28S 23°58' W 046°18'0 0.0
2016-Nov-25 06:28S 23°58' W 046°18'0 0.0
2016-Nov-25 05:22S 23°58' W 046°18'0 0.0
2016-Nov-25 04:28S 23°58' W 046°18'0 0.0
2016-Nov-25 03:28S 23°58' W 046°18'0 0.0
2016-Nov-25 02:28S 23°58' W 046°18'0 0.0
2016-Nov-25 00:24S 23°58' W 046°18'2 2.5
2016-Nov-24 23:33S 23°60' W 046°19'7 7.4
2016-Nov-24 22:33S 24°06' W 046°22'4 3.6
2016-Nov-24 21:24S 24°08' W 046°18'0 0.1
2016-Nov-24 20:30S 24°08' W 046°18'0 0.1
2016-Nov-24 19:33S 24°08' W 046°18'0 0.0
2016-Nov-24 18:27S 24°08' W 046°17'0 0.1
2016-Nov-24 17:33S 24°08' W 046°17'0 0.0
2016-Nov-24 16:33S 24°08' W 046°17'0 0.0
2016-Nov-24 15:33S 24°08' W 046°17'0 0.0
2016-Nov-24 14:33S 24°08' W 046°17'0 0.0
2016-Nov-24 13:24S 24°08' W 046°17'0 0.2
2016-Nov-24 12:33S 24°08' W 046°18'6 6.4
2016-Nov-24 11:33S 24°14' W 046°21'9 8.9
2016-Nov-24 10:34S 24°21' W 046°14'1110.8
2016-Nov-24 09:33S 24°25' W 046°04'1211.3
2016-Nov-24 08:30S 24°29' W 045°51'1111.2
2016-Nov-24 07:32S 24°32' W 045°40'1311.3
2016-Nov-24 06:23S 24°36' W 045°26'  
Track history (hours):
 
Tides and Currents Weather Stations Pressure Air Temp Water Temp Dewpoint Dewpoint Depression Visibility Wind Speed Wind Dir Waves Ship Positions

Tubul

Last reported at 2016-Nov-29 16:33 UTC. Time now 2016-Dec-09 03:52 UTC.
Position S 27°31' W 048°16'.
Warning: this ship's position is 9 days out of date.

Length 300 m; draft 10.7 m.

Type: Ship (hazmat cat A). MMSI: 636014647.

Date/timePositionNaut miles runAvg speedWind from/ knotsBaromVisibWave heightAir tempDewpointWater temp
2016-Nov-29 16:33S 27°31' W 048°16'  
2016-Nov-26 02:11S 24°39' W 046°47'1421.8
2016-Nov-26 01:33S 24°29' W 046°37'2121.4
2016-Nov-26 00:33S 24°10' W 046°25'1212.5
2016-Nov-25 23:33S 23°60' W 046°18'2 1.4
2016-Nov-25 22:16S 23°58' W 046°18'0 0.0
2016-Nov-25 21:25S 23°58' W 046°18'0 0.0
2016-Nov-25 20:28S 23°58' W 046°18'0 0.0
2016-Nov-25 19:13S 23°58' W 046°18'0 0.0
2016-Nov-25 17:28S 23°58' W 046°18'0 0.0
2016-Nov-25 16:22S 23°58' W 046°18'0 0.0
2016-Nov-25 15:31S 23°58' W 046°18'0 0.0
2016-Nov-25 14:31S 23°58' W 046°18'0 0.0
2016-Nov-25 13:25S 23°58' W 046°18'0 0.0
2016-Nov-25 11:19S 23°58' W 046°18'0 0.0
2016-Nov-25 10:28S 23°58' W 046°18'0 0.0
2016-Nov-25 09:28S 23°58' W 046°18'0 0.0
2016-Nov-25 08:28S 23°58' W 046°18'0 0.0
2016-Nov-25 07:28S 23°58' W 046°18'0 0.0
2016-Nov-25 06:28S 23°58' W 046°18'0 0.0
2016-Nov-25 05:22S 23°58' W 046°18'0 0.0
2016-Nov-25 04:28S 23°58' W 046°18'0 0.0
2016-Nov-25 03:28S 23°58' W 046°18'0 0.0
2016-Nov-25 02:28S 23°58' W 046°18'0 0.0
2016-Nov-25 00:24S 23°58' W 046°18'2 2.5
2016-Nov-24 23:33S 23°60' W 046°19'7 7.4
2016-Nov-24 22:33S 24°06' W 046°22'4 3.6
2016-Nov-24 21:24S 24°08' W 046°18'0 0.1
2016-Nov-24 20:30S 24°08' W 046°18'0 0.1
2016-Nov-24 19:33S 24°08' W 046°18'0 0.0
2016-Nov-24 18:27S 24°08' W 046°17'0 0.1
2016-Nov-24 17:33S 24°08' W 046°17'0 0.0
2016-Nov-24 16:33S 24°08' W 046°17'0 0.0
2016-Nov-24 15:33S 24°08' W 046°17'0 0.0
2016-Nov-24 14:33S 24°08' W 046°17'0 0.0
2016-Nov-24 13:24S 24°08' W 046°17'0 0.2
2016-Nov-24 12:33S 24°08' W 046°18'6 6.4
2016-Nov-24 11:33S 24°14' W 046°21'9 8.9
2016-Nov-24 10:34S 24°21' W 046°14'1110.8
2016-Nov-24 09:33S 24°25' W 046°04'1211.3
2016-Nov-24 08:30S 24°29' W 045°51'1111.2
2016-Nov-24 07:32S 24°32' W 045°40'1311.3
2016-Nov-24 06:23S 24°36' W 045°26'  

Dump ship's entire track history